createdAt,value
2023-01-19T00:01:42.637Z,81.48
2023-01-19T00:04:10.271Z,80.90
2023-01-19T00:06:37.853Z,81.40
2023-01-19T00:09:05.495Z,80.48
2023-01-19T00:11:33.105Z,81.38
2023-01-19T00:14:02.583Z,81.24
2023-01-19T00:16:30.219Z,81.72
2023-01-19T00:18:58.556Z,81.09
2023-01-19T00:21:27.239Z,81.34
2023-01-19T00:23:54.904Z,81.37
2023-01-19T00:26:23.074Z,81.19
2023-01-19T00:28:50.990Z,80.67
2023-01-19T00:31:21.754Z,81.04
2023-01-19T00:33:51.442Z,80.52
2023-01-19T00:36:20.143Z,80.20
2023-01-19T00:38:48.081Z,80.20
2023-01-19T00:41:15.689Z,80.29
2023-01-19T00:43:42.707Z,80.38
2023-01-19T00:46:10.444Z,80.44
2023-01-19T00:48:39.714Z,80.41
2023-01-19T00:51:07.323Z,81.22
2023-01-19T00:53:35.863Z,80.40
2023-01-19T00:56:03.449Z,80.50
2023-01-19T00:58:31.792Z,80.75
2023-01-19T01:01:03.569Z,79.97
2023-01-19T01:03:31.773Z,79.76
2023-01-19T01:06:00.764Z,80.02
2023-01-19T01:08:29.614Z,80.42
2023-01-19T01:10:58.025Z,79.68
2023-01-19T01:13:27.914Z,79.98
2023-01-19T01:15:57.594Z,80.65
2023-01-19T01:18:26.328Z,79.86
2023-01-19T01:20:56.066Z,79.75
2023-01-19T01:23:26.413Z,79.65
2023-01-19T01:25:54.040Z,80.36
2023-01-19T01:28:22.105Z,79.87
2023-01-19T01:30:54.100Z,80.38
2023-01-19T01:33:41.158Z,80.55
2023-01-19T01:36:11.129Z,80.48
2023-01-19T01:38:40.730Z,81.27
2023-01-19T01:41:09.051Z,80.65
2023-01-19T01:43:45.600Z,80.13
2023-01-19T01:46:15.382Z,80.51
2023-01-19T01:48:48.415Z,79.83
2023-01-19T01:51:27.483Z,80.13
2023-01-19T01:54:06.745Z,79.79
2023-01-19T01:56:36.773Z,79.97
2023-01-19T01:59:08.596Z,79.14
2023-01-19T02:01:55.429Z,78.93
2023-01-19T02:04:24.653Z,79.08
2023-01-19T02:07:10.064Z,78.34
2023-01-19T02:09:57.099Z,78.26
2023-01-19T02:12:43.775Z,79.50
2023-01-19T02:15:17.678Z,78.58
2023-01-19T02:17:45.511Z,78.12
2023-01-19T02:20:14.772Z,78.36
2023-01-19T02:22:48.650Z,78.50
2023-01-19T02:25:20.577Z,78.14
2023-01-19T02:27:49.014Z,78.38
2023-01-19T02:30:18.334Z,77.95
2023-01-19T02:32:46.856Z,78.95
2023-01-19T02:35:15.275Z,78.07
2023-01-19T02:37:44.846Z,78.45
2023-01-19T02:40:15.233Z,78.31
2023-01-19T02:42:47.453Z,78.37
2023-01-19T02:45:18.494Z,78.18
2023-01-19T02:47:49.229Z,78.52
2023-01-19T02:50:41.832Z,78.16
2023-01-19T02:53:29.612Z,78.05
2023-01-19T02:56:05.090Z,77.77
2023-01-19T02:58:41.571Z,78.42
2023-01-19T03:01:20.893Z,78.42
2023-01-19T03:03:55.793Z,78.44
2023-01-19T03:06:35.458Z,78.10
2023-01-19T03:09:09.491Z,78.80
2023-01-19T03:11:42.855Z,78.05
2023-01-19T03:14:15.849Z,80.05
2023-01-19T03:16:48.827Z,79.53
2023-01-19T03:19:21.330Z,79.47
2023-01-19T03:21:53.106Z,79.97
2023-01-19T03:24:23.844Z,79.87
2023-01-19T03:26:59.044Z,80.60
2023-01-19T03:29:34.741Z,81.15
2023-01-19T03:32:07.341Z,80.65
2023-01-19T03:34:36.006Z,80.47
2023-01-19T03:37:06.025Z,80.99
2023-01-19T03:39:34.963Z,81.18
2023-01-19T03:42:06.725Z,80.42
2023-01-19T03:44:38.692Z,80.24
2023-01-19T03:47:12.704Z,80.37
2023-01-19T03:49:42.976Z,81.04
2023-01-19T03:52:12.902Z,80.52
2023-01-19T03:54:42.070Z,80.18
2023-01-19T03:57:10.021Z,80.39
2023-01-19T03:59:38.970Z,79.36
2023-01-19T04:02:07.037Z,79.77
2023-01-19T04:04:34.680Z,79.68
2023-01-19T04:07:02.540Z,79.59
2023-01-19T04:09:30.263Z,80.06
2023-01-19T04:11:58.507Z,79.84
2023-01-19T04:14:26.079Z,79.39
2023-01-19T04:16:55.948Z,80.43
2023-01-19T04:19:23.726Z,80.22
2023-01-19T04:21:52.238Z,80.19
2023-01-19T04:24:19.885Z,80.05
2023-01-19T04:26:47.544Z,80.20
2023-01-19T04:29:15.266Z,80.09
2023-01-19T04:31:43.138Z,79.78
2023-01-19T04:34:12.072Z,80.57
2023-01-19T04:36:39.694Z,79.81
2023-01-19T04:39:08.939Z,79.52
2023-01-19T04:41:36.811Z,79.25
2023-01-19T04:44:04.867Z,79.24
2023-01-19T04:46:32.670Z,79.85
2023-01-19T04:49:00.356Z,80.28
2023-01-19T04:51:29.667Z,80.75
2023-01-19T04:53:57.766Z,80.53
2023-01-19T04:56:25.932Z,80.59
2023-01-19T04:58:53.532Z,80.29
2023-01-19T05:01:21.971Z,80.13
2023-01-19T05:03:49.668Z,80.34
2023-01-19T05:06:17.748Z,80.72
2023-01-19T05:08:46.679Z,80.57
2023-01-19T05:11:14.782Z,79.86
2023-01-19T05:13:42.375Z,78.93
2023-01-19T05:16:10.409Z,78.74
2023-01-19T05:18:38.781Z,79.10
2023-01-19T05:21:07.805Z,78.52
2023-01-19T05:23:35.416Z,78.42
2023-01-19T05:26:04.992Z,78.47
2023-01-19T05:28:34.324Z,79.23
2023-01-19T05:31:02.031Z,79.05
2023-01-19T05:33:29.957Z,79.25
2023-01-19T05:35:57.570Z,79.62
2023-01-19T05:38:34.614Z,79.77
2023-01-19T05:41:04.238Z,79.43
2023-01-19T05:43:32.660Z,79.74
2023-01-19T05:46:00.245Z,81.12
2023-01-19T05:48:28.528Z,81.28
2023-01-19T05:50:59.094Z,81.69
2023-01-19T05:53:27.707Z,80.55
2023-01-19T05:56:00.561Z,80.07
2023-01-19T05:58:30.287Z,80.02
2023-01-19T06:00:58.617Z,80.16
2023-01-19T06:03:26.611Z,80.63
2023-01-19T06:05:54.218Z,80.81
2023-01-19T06:08:22.198Z,80.43
2023-01-19T06:10:49.789Z,79.69
2023-01-19T06:13:18.132Z,79.80
2023-01-19T06:15:47.342Z,79.61
2023-01-19T06:18:16.097Z,79.74
2023-01-19T06:20:43.892Z,79.73
2023-01-19T06:23:12.389Z,79.54
2023-01-19T06:25:39.973Z,79.71
2023-01-19T06:28:08.386Z,79.99
2023-01-19T06:30:36.024Z,80.05
2023-01-19T06:33:05.458Z,79.41
2023-01-19T06:35:33.033Z,79.73
2023-01-19T06:38:00.915Z,79.15
2023-01-19T06:40:28.762Z,78.70
2023-01-19T06:42:56.959Z,78.09
2023-01-19T06:45:24.525Z,77.90
2023-01-19T06:47:52.817Z,77.21
2023-01-19T06:50:22.631Z,77.35
2023-01-19T06:52:50.928Z,77.31
2023-01-19T06:55:18.854Z,77.65
2023-01-19T06:57:46.575Z,77.71
2023-01-19T07:00:15.475Z,77.90
2023-01-19T07:02:44.005Z,77.93
2023-01-19T07:05:14.762Z,77.53
2023-01-19T07:07:44.888Z,77.08
2023-01-19T07:10:15.608Z,77.67
2023-01-19T07:12:45.033Z,77.88
2023-01-19T07:15:12.878Z,78.32
2023-01-19T07:17:41.599Z,78.18
2023-01-19T07:20:11.189Z,78.66
2023-01-19T07:22:38.877Z,78.15
2023-01-19T07:25:09.093Z,77.98
2023-01-19T07:27:37.203Z,78.09
2023-01-19T07:30:06.699Z,78.53
2023-01-19T07:32:34.622Z,78.82
2023-01-19T07:35:02.646Z,78.30
2023-01-19T07:37:30.337Z,78.19
2023-01-19T07:39:57.954Z,78.00
2023-01-19T07:42:27.051Z,77.88
2023-01-19T07:44:54.692Z,78.21
2023-01-19T07:47:22.731Z,77.49
2023-01-19T07:49:50.340Z,78.13
2023-01-19T07:52:17.908Z,77.63
2023-01-19T07:54:45.837Z,77.31
2023-01-19T07:57:13.421Z,76.58
2023-01-19T07:59:42.591Z,76.68
2023-01-19T08:02:11.173Z,76.31
2023-01-19T08:04:39.341Z,76.39
2023-01-19T08:07:07.364Z,76.21
2023-01-19T08:09:34.963Z,76.79
2023-01-19T08:12:02.835Z,76.68
2023-01-19T08:14:30.889Z,76.71
2023-01-19T08:17:01.559Z,76.60
2023-01-19T08:19:29.602Z,76.95
2023-01-19T08:21:58.814Z,76.79
2023-01-19T08:24:28.568Z,76.42
2023-01-19T08:27:00.268Z,76.90
2023-01-19T08:29:30.925Z,76.59
2023-01-19T08:32:01.137Z,76.52
2023-01-19T08:34:32.729Z,77.23
2023-01-19T08:37:00.514Z,76.22
2023-01-19T08:39:28.352Z,76.35
2023-01-19T08:41:56.004Z,75.78
2023-01-19T08:44:24.531Z,75.68
2023-01-19T08:46:52.139Z,74.96
2023-01-19T08:49:19.946Z,74.37
2023-01-19T08:51:49.085Z,73.71
2023-01-19T08:54:18.587Z,72.60
2023-01-19T08:56:46.405Z,72.59
2023-01-19T08:59:14.663Z,71.19
2023-01-19T09:01:42.467Z,66.23
2023-01-19T09:04:10.149Z,63.01
2023-01-19T09:06:37.800Z,60.14
2023-01-19T09:09:06.788Z,58.62
2023-01-19T09:11:35.284Z,57.54
2023-01-19T09:14:04.189Z,56.67
2023-01-19T09:16:32.333Z,55.71
2023-01-19T09:18:59.903Z,55.29
2023-01-19T09:21:28.958Z,54.33
2023-01-19T09:23:57.686Z,54.57
2023-01-19T09:26:27.395Z,53.12
2023-01-19T09:28:54.974Z,52.67
2023-01-19T09:31:23.962Z,51.04
2023-01-19T09:33:51.645Z,49.91
2023-01-19T09:36:19.414Z,49.48
2023-01-19T09:38:47.009Z,49.49
2023-01-19T09:41:22.206Z,49.61
2023-01-19T09:43:55.848Z,49.48
2023-01-19T09:46:31.093Z,49.84
2023-01-19T09:49:04.752Z,48.79
2023-01-19T09:51:37.260Z,49.88
2023-01-19T09:54:12.151Z,49.21
2023-01-19T09:56:40.991Z,47.74
2023-01-19T09:59:21.110Z,49.31
2023-01-19T10:02:11.184Z,47.28
2023-01-19T10:04:41.667Z,46.56
2023-01-19T10:07:24.743Z,47.52
2023-01-19T10:10:06.975Z,46.07
2023-01-19T10:12:45.684Z,47.17
2023-01-19T10:15:26.088Z,46.65
2023-01-19T10:18:04.921Z,45.82
2023-01-19T10:20:39.947Z,43.68
2023-01-19T10:23:22.819Z,44.29
2023-01-19T10:25:50.799Z,44.92
2023-01-19T10:28:24.865Z,45.19
2023-01-19T10:30:55.977Z,45.24
2023-01-19T10:33:23.778Z,44.52
2023-01-19T10:35:52.352Z,44.31
2023-01-19T10:38:22.208Z,45.60
2023-01-19T10:40:57.448Z,47.11
2023-01-19T10:43:39.733Z,49.05
2023-01-19T10:46:17.349Z,49.83
2023-01-19T10:48:45.802Z,48.85
2023-01-19T10:51:13.533Z,49.57
2023-01-19T10:53:43.771Z,48.35
2023-01-19T10:56:17.746Z,48.11
2023-01-19T10:58:45.479Z,46.55
2023-01-19T11:01:20.579Z,44.70
2023-01-19T11:03:48.617Z,43.97
2023-01-19T11:06:28.650Z,43.76
2023-01-19T11:09:12.597Z,45.49
2023-01-19T11:11:45.384Z,46.07
2023-01-19T11:14:15.123Z,47.43
2023-01-19T11:16:48.961Z,44.13
2023-01-19T11:19:21.603Z,42.63
2023-01-19T11:21:49.702Z,45.71
2023-01-19T11:24:18.267Z,45.56
2023-01-19T11:26:47.949Z,50.23
2023-01-19T11:29:20.047Z,54.17
2023-01-19T11:31:50.172Z,51.28
2023-01-19T11:34:33.405Z,49.12
2023-01-19T11:37:04.045Z,49.03
2023-01-19T11:39:33.803Z,49.85
2023-01-19T11:42:03.910Z,47.51
2023-01-19T11:44:34.820Z,45.92
2023-01-19T11:47:06.957Z,45.91
2023-01-19T11:49:43.811Z,49.31
2023-01-19T11:52:23.536Z,45.13
2023-01-19T11:54:58.756Z,45.20
2023-01-19T11:57:26.756Z,46.68
2023-01-19T11:59:54.821Z,48.48
2023-01-19T12:02:29.529Z,50.10
2023-01-19T12:05:02.141Z,54.45
2023-01-19T12:07:35.132Z,56.67
2023-01-19T12:10:14.581Z,58.67
2023-01-19T12:12:42.495Z,61.57
2023-01-19T12:15:22.406Z,61.48
2023-01-19T12:17:54.519Z,61.46
2023-01-19T12:20:28.527Z,61.75
2023-01-19T12:23:05.521Z,61.79
2023-01-19T12:25:44.236Z,60.11
2023-01-19T12:28:14.711Z,60.82
2023-01-19T12:30:42.792Z,60.84
2023-01-19T12:33:37.450Z,60.68
2023-01-19T12:36:10.882Z,62.20
2023-01-19T12:38:52.260Z,61.69
2023-01-19T12:41:24.113Z,62.98
2023-01-19T12:44:16.607Z,62.65
2023-01-19T12:46:47.553Z,62.49
2023-01-19T12:49:26.072Z,63.36
2023-01-19T12:51:56.494Z,64.19
2023-01-19T12:54:31.547Z,63.72
2023-01-19T12:57:03.160Z,64.12
2023-01-19T12:59:33.050Z,66.67
2023-01-19T13:02:51.991Z,66.11
2023-01-19T13:05:24.488Z,64.00
2023-01-19T13:08:18.169Z,65.18
2023-01-19T13:11:25.813Z,63.34
2023-01-19T13:14:36.113Z,62.92
2023-01-19T13:17:22.336Z,62.02
2023-01-19T13:20:03.348Z,61.55
2023-01-19T13:23:16.314Z,61.19
2023-01-19T13:25:50.281Z,61.76
2023-01-19T13:28:21.049Z,62.18
2023-01-19T13:30:56.522Z,62.12
2023-01-19T13:33:27.771Z,62.16
2023-01-19T13:35:58.618Z,63.05
2023-01-19T13:38:30.074Z,63.43
2023-01-19T13:41:01.768Z,63.13
2023-01-19T13:43:33.817Z,62.72
2023-01-19T13:46:02.094Z,63.72
2023-01-19T13:48:32.103Z,64.85
2023-01-19T13:51:02.498Z,63.46
2023-01-19T13:53:32.852Z,64.08
2023-01-19T13:56:28.864Z,63.98
2023-01-19T13:59:01.130Z,63.28
2023-01-19T14:01:30.241Z,63.78
2023-01-19T14:03:58.273Z,63.24
2023-01-19T14:06:34.473Z,63.17
2023-01-19T14:09:24.269Z,64.63
2023-01-19T14:12:14.876Z,63.42
2023-01-19T14:14:43.271Z,63.52
2023-01-19T14:17:25.692Z,63.46
2023-01-19T14:19:55.256Z,62.88
2023-01-19T14:22:37.908Z,63.30
2023-01-19T14:25:29.866Z,62.73
2023-01-19T14:28:39.190Z,62.90
2023-01-19T14:31:20.714Z,63.56
2023-01-19T14:33:49.875Z,63.88
2023-01-19T14:36:30.139Z,63.14
2023-01-19T14:39:00.189Z,63.93
2023-01-19T14:41:41.125Z,63.58
2023-01-19T14:44:10.973Z,64.58
2023-01-19T14:46:39.416Z,65.22
2023-01-19T14:49:07.645Z,64.44
2023-01-19T14:51:35.565Z,65.89
2023-01-19T14:54:04.859Z,64.59
2023-01-19T14:56:34.295Z,64.24
2023-01-19T14:59:03.276Z,64.16
2023-01-19T15:01:32.217Z,64.88
2023-01-19T15:03:59.889Z,64.58
2023-01-19T15:06:28.079Z,64.28
2023-01-19T15:08:56.168Z,63.64
2023-01-19T15:11:28.234Z,63.84
2023-01-19T15:13:57.187Z,65.10
2023-01-19T15:16:26.947Z,65.33
2023-01-19T15:18:54.569Z,65.89
2023-01-19T15:21:26.924Z,66.46
2023-01-19T15:23:55.442Z,66.52
2023-01-19T15:26:25.816Z,65.95
2023-01-19T15:28:54.659Z,66.17
2023-01-19T15:31:25.821Z,66.14
2023-01-19T15:33:53.542Z,66.36
2023-01-19T15:36:24.568Z,66.51
2023-01-19T15:38:52.267Z,67.92
2023-01-19T15:41:25.281Z,67.04
2023-01-19T15:43:53.608Z,66.21
2023-01-19T15:46:25.474Z,66.63
2023-01-19T15:48:54.199Z,66.11
2023-01-19T15:51:25.969Z,66.77
2023-01-19T15:53:54.727Z,66.37
2023-01-19T15:56:24.731Z,66.50
2023-01-19T15:58:53.008Z,65.96
2023-01-19T16:01:23.910Z,66.74
2023-01-19T16:03:51.812Z,66.59
2023-01-19T16:06:20.137Z,65.37
2023-01-19T16:08:47.729Z,66.50
2023-01-19T16:11:18.751Z,65.24
2023-01-19T16:13:47.553Z,65.31
2023-01-19T16:16:18.222Z,64.69
2023-01-19T16:18:47.525Z,64.12
2023-01-19T16:21:15.508Z,64.51
2023-01-19T16:23:43.103Z,64.61
2023-01-19T16:26:25.279Z,63.72
2023-01-19T16:28:52.958Z,64.38
2023-01-19T16:31:20.956Z,63.77
2023-01-19T16:33:50.071Z,64.02
2023-01-19T16:36:23.537Z,63.38
2023-01-19T16:38:51.250Z,63.97
2023-01-19T16:41:19.916Z,64.01
2023-01-19T16:43:51.947Z,64.08
2023-01-19T16:46:22.825Z,64.49
2023-01-19T16:48:52.636Z,64.98
2023-01-19T16:51:21.165Z,64.72
2023-01-19T16:53:50.680Z,64.61
2023-01-19T16:56:18.955Z,64.62
2023-01-19T16:58:46.862Z,64.75
2023-01-19T17:01:18.245Z,64.79
2023-01-19T17:03:47.497Z,65.37
2023-01-19T17:06:20.426Z,65.31
2023-01-19T17:08:48.434Z,64.87
2023-01-19T17:11:20.566Z,64.94
2023-01-19T17:13:48.606Z,64.81
2023-01-19T17:16:16.689Z,65.37
2023-01-19T17:18:44.312Z,65.96
2023-01-19T17:21:12.477Z,65.84
2023-01-19T17:23:45.722Z,66.26
2023-01-19T17:26:13.479Z,66.39
2023-01-19T17:28:41.807Z,66.33
2023-01-19T17:31:11.789Z,66.54
2023-01-19T17:33:40.921Z,67.11
2023-01-19T17:36:11.300Z,67.15
2023-01-19T17:38:39.649Z,67.17
2023-01-19T17:41:14.601Z,67.85
2023-01-19T17:43:42.710Z,67.08
2023-01-19T17:46:10.378Z,67.65
2023-01-19T17:48:38.734Z,67.25
2023-01-19T17:51:09.327Z,67.84
2023-01-19T17:53:38.548Z,67.26
2023-01-19T17:56:07.446Z,66.39
2023-01-19T17:58:37.574Z,67.49
2023-01-19T18:01:09.937Z,68.00
2023-01-19T18:03:38.820Z,67.65
2023-01-19T18:06:06.881Z,68.03
2023-01-19T18:08:36.620Z,68.07
2023-01-19T18:11:04.688Z,68.50
2023-01-19T18:13:33.243Z,68.55
2023-01-19T18:16:03.665Z,68.59
2023-01-19T18:18:32.272Z,68.87
2023-01-19T18:21:00.812Z,69.11
2023-01-19T18:23:29.747Z,69.70
2023-01-19T18:26:00.370Z,69.96
2023-01-19T18:28:29.601Z,70.73
2023-01-19T18:30:57.428Z,71.51
2023-01-19T18:33:27.831Z,72.15
2023-01-19T18:35:55.654Z,72.04
2023-01-19T18:38:23.311Z,71.83
2023-01-19T18:41:00.281Z,71.44
2023-01-19T18:43:27.899Z,72.02
2023-01-19T18:45:55.606Z,71.23
2023-01-19T18:48:23.652Z,71.67
2023-01-19T18:50:52.734Z,71.47
2023-01-19T18:53:20.881Z,71.71
2023-01-19T18:55:52.895Z,71.35
2023-01-19T18:58:23.293Z,71.35
2023-01-19T19:00:51.745Z,70.26
2023-01-19T19:03:19.570Z,69.06
2023-01-19T19:05:47.305Z,69.04
2023-01-19T19:08:16.545Z,68.57
2023-01-19T19:10:45.108Z,68.85
2023-01-19T19:13:13.323Z,68.47
2023-01-19T19:15:40.981Z,68.08
2023-01-19T19:18:11.340Z,68.22
2023-01-19T19:20:39.230Z,67.32
2023-01-19T19:23:06.926Z,67.38
2023-01-19T19:25:35.862Z,67.36
2023-01-19T19:28:03.732Z,67.51
2023-01-19T19:30:32.850Z,67.07
2023-01-19T19:33:01.099Z,67.49
2023-01-19T19:35:28.783Z,66.18
2023-01-19T19:37:57.561Z,66.02
2023-01-19T19:40:26.189Z,66.46
2023-01-19T19:42:58.307Z,67.66
2023-01-19T19:51:24.056Z,70.00
2023-01-19T19:53:52.890Z,69.42
2023-01-19T19:56:22.067Z,69.59
2023-01-19T19:58:50.396Z,69.73
2023-01-19T20:01:19.500Z,69.90
2023-01-19T20:03:49.239Z,69.40
2023-01-19T20:06:21.261Z,70.01
2023-01-19T20:08:50.021Z,69.54
2023-01-19T20:11:20.433Z,69.06
2023-01-19T20:13:48.910Z,69.07
2023-01-19T20:16:18.411Z,68.62
2023-01-19T20:18:51.098Z,69.26
2023-01-19T20:21:22.670Z,69.84
2023-01-19T20:23:53.214Z,70.56
2023-01-19T20:26:24.972Z,72.01
2023-01-19T20:28:53.013Z,72.03
2023-01-19T20:31:22.413Z,71.56
2023-01-19T20:33:52.258Z,72.68
2023-01-19T20:36:22.315Z,72.96
2023-01-19T20:38:50.186Z,73.62
2023-01-19T20:41:18.835Z,73.02
2023-01-19T20:43:46.625Z,73.57
2023-01-19T20:46:15.100Z,72.87
2023-01-19T20:48:43.148Z,73.72
2023-01-19T20:51:14.528Z,73.56
2023-01-19T20:53:43.483Z,73.62
2023-01-19T20:56:13.325Z,74.00
2023-01-19T20:58:41.778Z,74.48
2023-01-19T21:01:14.366Z,73.83
2023-01-19T21:03:42.864Z,73.77
2023-01-19T21:06:11.180Z,74.05
2023-01-19T21:08:38.958Z,74.21
2023-01-19T21:11:08.879Z,74.01
2023-01-19T21:13:37.111Z,73.65
2023-01-19T21:16:05.794Z,73.20
2023-01-19T21:18:33.491Z,73.74
2023-01-19T21:21:01.985Z,73.41
2023-01-19T21:23:29.603Z,73.43
2023-01-19T21:25:59.231Z,73.25
2023-01-19T21:28:29.250Z,73.07
2023-01-19T21:30:57.754Z,73.34
2023-01-19T21:33:25.723Z,73.17
2023-01-19T21:35:55.033Z,73.08
2023-01-19T21:38:23.775Z,73.38
2023-01-19T21:40:51.973Z,73.83
2023-01-19T21:43:19.990Z,73.53
2023-01-19T21:45:50.348Z,73.55
2023-01-19T21:48:19.647Z,73.54
2023-01-19T21:50:57.323Z,73.69
2023-01-19T21:53:25.353Z,73.09
2023-01-19T21:55:53.164Z,73.22
2023-01-19T21:58:22.910Z,73.63
2023-01-19T22:00:52.343Z,73.43
2023-01-19T22:03:20.012Z,73.07
2023-01-19T22:05:47.753Z,72.96
2023-01-19T22:08:15.315Z,73.70
2023-01-19T22:10:43.213Z,73.67
2023-01-19T22:13:11.021Z,73.95
2023-01-19T22:15:38.887Z,73.67
2023-01-19T22:18:07.952Z,73.76
2023-01-19T22:20:35.939Z,73.73
2023-01-19T22:23:03.531Z,73.84
2023-01-19T22:25:33.604Z,73.56
2023-01-19T22:28:01.215Z,73.67
2023-01-19T22:30:29.355Z,73.63
2023-01-19T22:32:56.994Z,73.92
2023-01-19T22:35:26.366Z,74.61
2023-01-19T22:37:54.553Z,74.30
2023-01-19T22:40:22.255Z,74.05
2023-01-19T22:42:50.355Z,74.33
2023-01-19T22:45:17.968Z,74.43
2023-01-19T22:47:47.142Z,74.39
2023-01-19T22:50:14.868Z,74.52
2023-01-19T22:52:43.938Z,73.85
2023-01-19T22:55:11.940Z,74.34
2023-01-19T22:57:40.322Z,74.68
2023-01-19T23:00:09.556Z,75.09
2023-01-19T23:02:37.302Z,74.29
2023-01-19T23:05:05.608Z,75.12
2023-01-19T23:07:33.631Z,74.82
2023-01-19T23:10:02.782Z,75.32
2023-01-19T23:12:30.341Z,74.49
2023-01-19T23:14:58.765Z,74.17
2023-01-19T23:17:26.358Z,74.16
2023-01-19T23:19:54.377Z,73.88
2023-01-19T23:22:22.807Z,73.94
2023-01-19T23:24:50.378Z,74.78
2023-01-19T23:27:19.846Z,74.43
2023-01-19T23:29:47.621Z,74.41
2023-01-19T23:32:15.893Z,75.12
2023-01-19T23:34:43.810Z,75.01
2023-01-19T23:37:11.940Z,75.39
2023-01-19T23:39:39.531Z,75.98
2023-01-19T23:42:08.419Z,75.64
2023-01-19T23:44:37.365Z,76.15
2023-01-19T23:47:05.045Z,76.47
2023-01-19T23:49:32.644Z,75.92
2023-01-19T23:52:00.915Z,76.77
2023-01-19T23:54:28.662Z,76.53
2023-01-19T23:56:56.567Z,76.45
2023-01-19T23:59:24.148Z,77.22
